Time;durP1;ratioP1;P1;durP2;ratioP2;P2;SDS_P1;SDS_P2;PMS_P1;PMS_P2;Temp;Humidity;BMP_temperature;BMP_pressure;BME280_temperature;BME280_humidity;BME280_pressure;Samples;Min_cycle;Max_cycle;Signal;HPM_P1;HPM_P2
2024/02/10 06:00:40;;;;;;;51.73;20.93;;;;;;;;;;5875511;23;20512;-72
2024/02/10 06:03:06;;;;;;;62.57;28.07;;;;;;;;;;4956756;28;20460;-72
2024/02/10 06:05:32;;;;;;;56.23;25.60;;;;;;;;;;4956521;29;20407;-72
2024/02/10 06:08:00;;;;;;;43.23;18.00;;;;;;;;;;4956801;29;20417;-72
2024/02/10 06:10:26;;;;;;;42.63;19.87;;;;;;;;;;4956032;28;20413;-72
2024/02/10 06:12:52;;;;;;;52.03;21.83;;;;;;;;;;4956679;28;20417;-72
2024/02/10 06:15:19;;;;;;;55.00;23.73;;;;;;;;;;4956210;29;20468;-71
2024/02/10 06:17:47;;;;;;;61.23;24.30;;;;;;;;;;4956485;29;20831;-72
2024/02/10 06:20:22;;;;;;;41.07;19.70;;;;;;;;;;4956042;28;20419;-72
2024/02/10 06:22:49;;;;;;;45.70;20.57;;;;;;;;;;4956173;28;20896;-72
2024/02/10 06:25:15;;;;;;;46.33;19.70;;;;;;;;;;4956051;28;20426;-72
2024/02/10 06:27:42;;;;;;;53.27;22.73;;;;;;;;;;4936634;29;20426;-72
2024/02/10 06:30:13;;;;;;;43.83;19.73;;;;;;;;;;4937290;29;20406;-72
2024/02/10 06:32:39;;;;;;;53.27;23.03;;;;;;;;;;4936907;29;20536;-72
2024/02/10 06:35:06;;;;;;;47.33;21.30;;;;;;;;;;4936690;29;20512;-72
2024/02/10 06:37:32;;;;;;;48.50;20.10;;;;;;;;;;4936910;29;20431;-72
2024/02/10 06:39:58;;;;;;;45.60;20.53;;;;;;;;;;4936534;29;20905;-72
2024/02/10 06:42:25;;;;;;;61.87;23.83;;;;;;;;;;4947080;29;20912;-72
2024/02/10 06:44:51;;;;;;;51.30;21.57;;;;;;;;;;4955687;28;20523;-72
2024/02/10 06:47:18;;;;;;;48.67;22.00;;;;;;;;;;4955560;29;20779;-72
2024/02/10 06:49:43;;;;;;;55.83;23.30;;;;;;;;;;4955471;29;20409;-72
2024/02/10 06:52:09;;;;;;;59.43;23.63;;;;;;;;;;4955539;29;20443;-72
2024/02/10 06:54:37;;;;;;;57.60;24.43;;;;;;;;;;4954154;29;20515;-72
2024/02/10 06:57:03;;;;;;;52.60;21.90;;;;;;;;;;4955736;28;20835;-72
2024/02/10 06:59:29;;;;;;;48.43;22.33;;;;;;;;;;4954208;29;20429;-71
2024/02/10 07:01:55;;;;;;;66.83;27.60;;;;;;;;;;4955498;28;20452;-71
2024/02/10 07:04:24;;;;;;;64.23;23.10;;;;;;;;;;4956091;29;20471;-72
2024/02/10 07:06:54;;;;;;;63.23;23.97;;;;;;;;;;4956111;29;20423;-72
2024/02/10 07:09:21;;;;;;;68.23;24.93;;;;;;;;;;4955004;28;20485;-72
2024/02/10 07:11:48;;;;;;;47.63;20.17;;;;;;;;;;4936869;29;20445;-72
2024/02/10 07:14:14;;;;;;;47.73;18.57;;;;;;;;;;4940848;29;20914;-72
2024/02/10 07:16:40;;;;;;;59.37;26.50;;;;;;;;;;4936365;29;20416;-72
2024/02/10 07:19:06;;;;;;;54.30;23.33;;;;;;;;;;4937445;29;20425;-73
2024/02/10 07:21:33;;;;;;;44.53;19.30;;;;;;;;;;4935862;29;20441;-72
2024/02/10 07:24:05;;;;;;;63.03;25.00;;;;;;;;;;4935982;29;20454;-73
2024/02/10 07:26:31;;;;;;;65.17;23.97;;;;;;;;;;4950276;29;20424;-73
2024/02/10 07:28:58;;;;;;;78.30;30.37;;;;;;;;;;4956611;29;20449;-73
2024/02/10 07:31:26;;;;;;;61.87;23.33;;;;;;;;;;4954680;28;20440;-73
2024/02/10 07:33:52;;;;;;;61.50;23.07;;;;;;;;;;4954821;28;20417;-73
2024/02/10 07:36:18;;;;;;;59.53;22.63;;;;;;;;;;4955002;29;20416;-73
2024/02/10 07:38:44;;;;;;;57.03;22.30;;;;;;;;;;4954917;28;20421;-73
2024/02/10 07:41:10;;;;;;;49.70;21.70;;;;;;;;;;4954339;29;20863;-72
2024/02/10 07:43:36;;;;;;;47.93;21.40;;;;;;;;;;4954529;29;20456;-72
2024/02/10 07:46:02;;;;;;;59.63;23.63;;;;;;;;;;4954602;29;20404;-73
2024/02/10 07:48:29;;;;;;;59.20;26.47;;;;;;;;;;4954491;29;20409;-73
2024/02/10 07:50:55;;;;;;;75.77;29.97;;;;;;;;;;4954172;28;20804;-73
2024/02/10 07:53:21;;;;;;;52.87;21.23;;;;;;;;;;4954794;28;20478;-73
2024/02/10 07:55:47;;;;;;;59.58;24.98;;;;;;;;;;4954208;28;20502;-75
2024/02/10 07:58:17;;;;;;;51.97;21.70;;;;;;;;;;4954327;29;20181;-72
2024/02/10 08:00:43;;;;;;;65.37;24.70;;;;;;;;;;4953924;29;20463;-72
2024/02/10 08:03:11;;;;;;;49.17;21.50;;;;;;;;;;4959273;28;20462;-70
2024/02/10 08:05:40;;;;;;;63.63;23.97;;;;;;;;;;4953002;28;20894;-70
2024/02/10 08:08:09;;;;;;;60.07;22.83;;;;;;;;;;4935465;28;20877;-70
2024/02/10 08:10:35;;;;;;;59.80;23.00;;;;;;;;;;4934939;29;20434;-70
2024/02/10 08:13:01;;;;;;;49.27;21.10;;;;;;;;;;4935148;29;20472;-70
2024/02/10 08:15:30;;;;;;;54.77;22.33;;;;;;;;;;4934937;29;20489;-71
2024/02/10 08:17:59;;;;;;;45.93;19.43;;;;;;;;;;4949030;29;20423;-72
2024/02/10 08:20:28;;;;;;;44.97;19.70;;;;;;;;;;4952233;28;20446;-72
2024/02/10 08:22:54;;;;;;;60.93;26.10;;;;;;;;;;4948192;28;20521;-72
2024/02/10 08:25:20;;;;;;;60.17;24.10;;;;;;;;;;4933706;29;20505;-72
2024/02/10 08:27:46;;;;;;;52.97;22.60;;;;;;;;;;4934650;29;20432;-72
2024/02/10 08:30:16;;;;;;;57.30;24.57;;;;;;;;;;4934734;29;20902;-72
2024/02/10 08:32:42;;;;;;;58.27;23.10;;;;;;;;;;4941955;28;20424;-72
2024/02/10 08:35:08;;;;;;;56.30;24.90;;;;;;;;;;4949057;28;20436;-71
2024/02/10 08:37:34;;;;;;;71.03;27.50;;;;;;;;;;4942436;29;20430;-72
2024/02/10 08:40:00;;;;;;;60.80;23.90;;;;;;;;;;4935296;29;20456;-72
2024/02/10 08:42:27;;;;;;;64.13;26.60;;;;;;;;;;4935474;28;20454;-72
2024/02/10 08:44:53;;;;;;;74.07;28.70;;;;;;;;;;4964618;28;20557;-72
2024/02/10 08:47:19;;;;;;;65.27;27.90;;;;;;;;;;4960473;28;20562;-72
2024/02/10 08:49:45;;;;;;;72.17;26.30;;;;;;;;;;4960699;28;20477;-71
2024/02/10 08:52:14;;;;;;;53.30;22.63;;;;;;;;;;4958535;28;20882;-72
2024/02/10 08:54:40;;;;;;;60.93;23.73;;;;;;;;;;4961574;28;20491;-72
2024/02/10 08:57:09;;;;;;;61.13;25.50;;;;;;;;;;4949397;29;20429;-72
2024/02/10 08:59:40;;;;;;;54.50;23.03;;;;;;;;;;4934280;29;20422;-71
2024/02/10 09:02:06;;;;;;;61.30;24.37;;;;;;;;;;4947310;28;20456;-71
2024/02/10 09:04:34;;;;;;;57.80;22.90;;;;;;;;;;4972935;28;20467;-72
2024/02/10 09:07:00;;;;;;;52.07;24.03;;;;;;;;;;4955738;28;20429;-71
2024/02/10 09:09:27;;;;;;;57.17;23.40;;;;;;;;;;4952387;29;20771;-71
2024/02/10 09:11:53;;;;;;;56.27;21.83;;;;;;;;;;4953691;28;20835;-71
2024/02/10 09:14:19;;;;;;;57.27;23.17;;;;;;;;;;4953635;29;20500;-72
2024/02/10 09:16:45;;;;;;;61.73;26.20;;;;;;;;;;4958082;28;20420;-74
2024/02/10 09:19:12;;;;;;;59.67;22.93;;;;;;;;;;4935273;29;20429;-71
2024/02/10 09:21:39;;;;;;;63.73;24.90;;;;;;;;;;4934061;29;20444;-71
2024/02/10 09:24:05;;;;;;;56.13;21.37;;;;;;;;;;4937179;29;20556;-71
2024/02/10 09:26:31;;;;;;;51.30;22.50;;;;;;;;;;4962436;28;20424;-71
2024/02/10 09:28:57;;;;;;;67.77;27.73;;;;;;;;;;4946581;28;20420;-71
2024/02/10 09:31:24;;;;;;;56.37;23.77;;;;;;;;;;4948634;29;20436;-70
2024/02/10 09:33:50;;;;;;;69.90;29.20;;;;;;;;;;4948492;28;20418;-70
2024/02/10 09:36:19;;;;;;;55.87;23.30;;;;;;;;;;4935909;29;20424;-69
2024/02/10 09:38:45;;;;;;;89.27;30.97;;;;;;;;;;4938034;29;20425;-70
2024/02/10 09:41:12;;;;;;;63.13;24.20;;;;;;;;;;4937381;29;20433;-70
2024/02/10 09:43:43;;;;;;;53.40;21.77;;;;;;;;;;4944214;29;20460;-70
2024/02/10 09:46:10;;;;;;;63.50;24.70;;;;;;;;;;4942989;28;20448;-70
2024/02/10 09:49:07;;;;;;;58.70;23.73;;;;;;;;;;4946722;29;20448;-70
2024/02/10 09:51:37;;;;;;;74.97;28.30;;;;;;;;;;4950365;29;20444;-71
2024/02/10 09:54:03;;;;;;;57.27;24.20;;;;;;;;;;4954555;28;20432;-71
2024/02/10 09:56:29;;;;;;;58.70;25.03;;;;;;;;;;4937394;29;20501;-70
2024/02/10 09:58:55;;;;;;;54.63;25.13;;;;;;;;;;4937296;29;20512;-71
2024/02/10 10:01:21;;;;;;;52.03;22.33;;;;;;;;;;4937005;28;20485;-70
2024/02/10 10:03:48;;;;;;;58.87;24.93;;;;;;;;;;4937527;29;20551;-71
2024/02/10 10:06:14;;;;;;;60.07;26.60;;;;;;;;;;4937087;29;20413;-70
2024/02/10 10:08:41;;;;;;;51.10;22.60;;;;;;;;;;4937251;29;20414;-71
2024/02/10 10:11:08;;;;;;;58.50;24.00;;;;;;;;;;4938399;29;20512;-71
2024/02/10 10:13:35;;;;;;;57.40;25.13;;;;;;;;;;4947096;29;20430;-70
2024/02/10 10:16:05;;;;;;;52.17;23.43;;;;;;;;;;4956246;28;20932;-69
2024/02/10 10:18:31;;;;;;;60.93;23.50;;;;;;;;;;4956093;28;20507;-69
2024/02/10 10:20:58;;;;;;;56.10;24.40;;;;;;;;;;4955268;28;20854;-69
2024/02/10 10:23:23;;;;;;;60.17;25.20;;;;;;;;;;4955857;29;20819;-71
2024/02/10 10:25:51;;;;;;;71.93;26.80;;;;;;;;;;4955481;28;20405;-71
2024/02/10 10:28:18;;;;;;;63.80;25.97;;;;;;;;;;4955769;28;20499;-71
2024/02/10 10:30:44;;;;;;;57.13;25.23;;;;;;;;;;4955581;28;20456;-71
2024/02/10 10:33:10;;;;;;;56.10;26.17;;;;;;;;;;4955884;29;20408;-71
2024/02/10 10:35:39;;;;;;;55.87;26.20;;;;;;;;;;4951759;29;20412;-71
2024/02/10 10:38:07;;;;;;;61.20;28.57;;;;;;;;;;4936848;29;20917;-71
2024/02/10 10:40:33;;;;;;;55.50;25.53;;;;;;;;;;4935204;29;20452;-71
2024/02/10 10:43:02;;;;;;;64.43;25.63;;;;;;;;;;4936285;29;20421;-71
2024/02/10 10:45:32;;;;;;;59.70;24.83;;;;;;;;;;4936806;29;20434;-70
2024/02/10 10:48:00;;;;;;;50.30;25.20;;;;;;;;;;4935714;29;20398;-70
2024/02/10 10:50:26;;;;;;;61.53;26.33;;;;;;;;;;4936150;29;20908;-70
2024/02/10 10:52:52;;;;;;;56.93;25.10;;;;;;;;;;4937042;29;20410;-70
2024/02/10 10:55:20;;;;;;;63.13;28.33;;;;;;;;;;4936147;29;20417;-70
2024/02/10 10:57:49;;;;;;;69.57;28.00;;;;;;;;;;4935984;29;20964;-70
2024/02/10 11:00:18;;;;;;;57.20;25.90;;;;;;;;;;4935819;29;20417;-70
2024/02/10 11:02:53;;;;;;;55.53;25.23;;;;;;;;;;4936121;29;20406;-71
2024/02/10 11:05:20;;;;;;;65.77;27.80;;;;;;;;;;4935304;28;20429;-70
2024/02/10 11:07:49;;;;;;;55.77;27.00;;;;;;;;;;4935920;29;20416;-70
2024/02/10 11:10:51;;;;;;;66.40;30.07;;;;;;;;;;4935663;29;20397;-70
2024/02/10 11:13:26;;;;;;;59.20;24.93;;;;;;;;;;4909795;29;20441;-70
2024/02/10 11:16:12;;;;;;;57.63;25.40;;;;;;;;;;4946798;29;20946;-71
2024/02/10 11:18:39;;;;;;;58.73;26.43;;;;;;;;;;4954602;28;20444;-70
2024/02/10 11:21:08;;;;;;;54.00;23.47;;;;;;;;;;4954641;29;20509;-71
2024/02/10 11:23:34;;;;;;;54.30;23.70;;;;;;;;;;4953483;29;20464;-71
2024/02/10 11:26:00;;;;;;;54.60;25.87;;;;;;;;;;4954764;28;20415;-71
2024/02/10 11:28:27;;;;;;;63.40;27.10;;;;;;;;;;4954655;29;20504;-71
2024/02/10 11:30:53;;;;;;;55.30;24.97;;;;;;;;;;4954258;28;20436;-71
2024/02/10 11:33:25;;;;;;;62.53;28.43;;;;;;;;;;4954551;29;20416;-71
2024/02/10 11:35:54;;;;;;;62.70;26.33;;;;;;;;;;4953582;28;20503;-70
2024/02/10 11:38:20;;;;;;;58.10;23.03;;;;;;;;;;4939042;28;20446;-70
2024/02/10 11:40:47;;;;;;;54.10;25.07;;;;;;;;;;4935305;29;20433;-70
2024/02/10 11:43:14;;;;;;;54.87;22.97;;;;;;;;;;4935279;29;20481;-73
2024/02/10 11:45:40;;;;;;;47.40;20.43;;;;;;;;;;4935384;29;20417;-70
2024/02/10 11:48:08;;;;;;;58.17;22.87;;;;;;;;;;4935592;29;20500;-70
2024/02/10 11:50:43;;;;;;;43.73;20.23;;;;;;;;;;4937847;29;20885;-70
2024/02/10 11:53:12;;;;;;;42.07;18.30;;;;;;;;;;4954716;29;20486;-70
2024/02/10 11:55:49;;;;;;;45.67;20.40;;;;;;;;;;4954101;29;20416;-70
2024/02/10 11:58:18;;;;;;;42.40;18.57;;;;;;;;;;4953961;28;20400;-71
2024/02/10 12:00:47;;;;;;;48.13;21.03;;;;;;;;;;4953520;28;20464;-71
2024/02/10 12:03:19;;;;;;;42.40;19.37;;;;;;;;;;4953853;28;20441;-71
2024/02/10 12:05:46;;;;;;;39.73;18.10;;;;;;;;;;4953961;28;20459;-71
2024/02/10 12:08:12;;;;;;;39.20;18.17;;;;;;;;;;4941222;28;20460;-71
2024/02/10 12:10:42;;;;;;;40.37;18.67;;;;;;;;;;4933375;29;20437;-71
2024/02/10 12:13:11;;;;;;;41.10;17.80;;;;;;;;;;4934958;29;20443;-70
2024/02/10 12:15:38;;;;;;;44.00;19.53;;;;;;;;;;4934753;29;20416;-70
2024/02/10 12:18:04;;;;;;;38.90;16.33;;;;;;;;;;4934676;29;20893;-71
2024/02/10 12:20:31;;;;;;;30.93;16.40;;;;;;;;;;4934297;29;20863;-71
2024/02/10 12:22:57;;;;;;;37.00;17.90;;;;;;;;;;4933916;29;20575;-70
2024/02/10 12:25:23;;;;;;;35.50;16.70;;;;;;;;;;4950328;29;20527;-70
2024/02/10 12:27:49;;;;;;;38.07;18.20;;;;;;;;;;4953452;29;20578;-70
2024/02/10 12:30:15;;;;;;;34.77;16.53;;;;;;;;;;4953371;29;20421;-71
2024/02/10 12:32:41;;;;;;;33.53;17.53;;;;;;;;;;4953312;29;20428;-70
2024/02/10 12:35:16;;;;;;;36.93;16.43;;;;;;;;;;4953431;28;20758;-70
2024/02/10 12:37:44;;;;;;;33.50;17.33;;;;;;;;;;4953663;28;20416;-70
2024/02/10 12:40:11;;;;;;;32.13;16.57;;;;;;;;;;4951874;28;20919;-70
2024/02/10 12:42:42;;;;;;;36.37;16.60;;;;;;;;;;4952370;29;20995;-70
2024/02/10 12:45:19;;;;;;;31.70;16.93;;;;;;;;;;4953167;28;20464;-70
2024/02/10 12:47:45;;;;;;;37.07;18.30;;;;;;;;;;4953241;28;20444;-70
2024/02/10 12:50:12;;;;;;;31.13;17.00;;;;;;;;;;4952987;29;20451;-70
2024/02/10 12:52:45;;;;;;;34.03;17.97;;;;;;;;;;4952965;29;20488;-71
2024/02/10 12:55:13;;;;;;;33.03;16.30;;;;;;;;;;4951415;28;20844;-70
2024/02/10 12:57:39;;;;;;;32.67;17.70;;;;;;;;;;4933888;29;20504;-70
2024/02/10 13:00:24;;;;;;;37.23;18.03;;;;;;;;;;4933604;29;20508;-71
2024/02/10 13:02:51;;;;;;;37.00;16.93;;;;;;;;;;4934089;29;20487;-71
2024/02/10 13:05:19;;;;;;;38.70;21.17;;;;;;;;;;4933794;29;21043;-70
2024/02/10 13:07:46;;;;;;;36.20;17.87;;;;;;;;;;4933916;29;20501;-71
2024/02/10 13:10:21;;;;;;;42.27;18.83;;;;;;;;;;4933986;28;20453;-70
2024/02/10 13:12:54;;;;;;;34.50;16.93;;;;;;;;;;4937544;29;20417;-70
2024/02/10 13:15:22;;;;;;;40.53;17.70;;;;;;;;;;4937806;29;20428;-71
2024/02/10 13:17:48;;;;;;;33.53;17.60;;;;;;;;;;4937686;29;20428;-71
2024/02/10 13:20:17;;;;;;;38.10;18.50;;;;;;;;;;4937322;29;20515;-71
2024/02/10 13:22:44;;;;;;;34.97;19.30;;;;;;;;;;4937477;29;20910;-71
2024/02/10 13:25:10;;;;;;;42.07;19.50;;;;;;;;;;4937637;29;20528;-70
2024/02/10 13:27:36;;;;;;;36.63;17.70;;;;;;;;;;4937253;29;20674;-70
2024/02/10 13:30:03;;;;;;;31.40;17.83;;;;;;;;;;4937669;29;20904;-71
2024/02/10 13:32:31;;;;;;;36.33;18.20;;;;;;;;;;4937807;29;20529;-71
2024/02/10 13:34:58;;;;;;;43.07;19.70;;;;;;;;;;4938205;29;20414;-71
2024/02/10 14:10:12;;;;;;;22.40;12.37;;;;;;;;;;4936613;29;20398;-71
2024/02/10 14:12:45;;;;;;;22.87;12.60;;;;;;;;;;4936692;29;20413;-70
2024/02/10 14:15:20;;;;;;;21.73;11.50;;;;;;;;;;4936699;29;20856;-71
2024/02/10 14:17:50;;;;;;;19.63;10.73;;;;;;;;;;4936734;29;20851;-70
2024/02/10 14:20:19;;;;;;;21.80;12.60;;;;;;;;;;4936842;29;20527;-70
2024/02/10 14:22:46;;;;;;;23.90;13.67;;;;;;;;;;4936466;29;20845;-70
2024/02/10 14:25:23;;;;;;;22.83;12.30;;;;;;;;;;4936197;29;20981;-71
2024/02/10 14:27:54;;;;;;;21.13;12.10;;;;;;;;;;4940471;28;20412;-70
2024/02/10 14:30:31;;;;;;;22.20;13.30;;;;;;;;;;4955347;28;20409;-71
2024/02/10 14:32:57;;;;;;;22.80;12.90;;;;;;;;;;4955587;28;20421;-71
2024/02/10 14:35:44;;;;;;;25.03;12.23;;;;;;;;;;4936570;29;20435;-72
2024/02/10 14:38:23;;;;;;;28.23;14.23;;;;;;;;;;4936393;29;20417;-71
2024/02/10 14:40:49;;;;;;;23.20;13.40;;;;;;;;;;4936860;29;20445;-70
2024/02/10 14:43:16;;;;;;;26.83;13.70;;;;;;;;;;4936438;29;20479;-70
2024/02/10 14:45:42;;;;;;;28.93;13.77;;;;;;;;;;4936273;29;20413;-70
2024/02/10 14:48:08;;;;;;;21.90;13.43;;;;;;;;;;4937392;29;20425;-70
2024/02/10 14:50:34;;;;;;;29.70;15.80;;;;;;;;;;4936158;29;20438;-70
2024/02/10 14:53:00;;;;;;;25.27;12.70;;;;;;;;;;4935966;29;20449;-71
2024/02/10 14:55:28;;;;;;;30.90;15.03;;;;;;;;;;4937334;28;20452;-70
2024/02/10 14:57:54;;;;;;;24.70;14.23;;;;;;;;;;4935715;29;20424;-70
2024/02/10 15:00:30;;;;;;;25.20;14.00;;;;;;;;;;4935148;29;20414;-71
2024/02/10 15:02:57;;;;;;;25.17;13.70;;;;;;;;;;4952709;29;20499;-71
2024/02/10 15:05:26;;;;;;;34.67;14.23;;;;;;;;;;4954709;28;20500;-71
2024/02/10 15:07:52;;;;;;;24.83;12.03;;;;;;;;;;4954855;28;20442;-70
2024/02/10 15:10:17;;;;;;;26.47;12.60;;;;;;;;;;4954766;28;20409;-70
2024/02/10 15:12:43;;;;;;;23.00;13.03;;;;;;;;;;4954595;28;20762;-71
2024/02/10 15:15:11;;;;;;;25.33;13.00;;;;;;;;;;4953847;29;20774;-70
2024/02/10 15:17:36;;;;;;;21.30;13.13;;;;;;;;;;4954691;28;20829;-70
2024/02/10 15:20:05;;;;;;;23.80;13.67;;;;;;;;;;4954319;28;20421;-71
2024/02/10 15:22:33;;;;;;;25.20;13.53;;;;;;;;;;4954984;28;20924;-71
2024/02/10 15:25:01;;;;;;;27.43;14.67;;;;;;;;;;4954881;28;20515;-71
2024/02/10 15:27:27;;;;;;;31.10;15.17;;;;;;;;;;4954446;28;20409;-71
2024/02/10 15:29:56;;;;;;;30.17;14.80;;;;;;;;;;4953596;28;20471;-71
2024/02/10 15:32:31;;;;;;;28.00;15.03;;;;;;;;;;4939840;28;20491;-70
2024/02/10 15:35:01;;;;;;;35.63;15.50;;;;;;;;;;4953927;28;20420;-70
2024/02/10 15:37:28;;;;;;;27.57;14.40;;;;;;;;;;4953967;28;20417;-71
2024/02/10 15:39:54;;;;;;;31.50;14.80;;;;;;;;;;4953912;28;20929;-70
2024/02/10 15:42:20;;;;;;;29.37;14.27;;;;;;;;;;4954183;28;20444;-70
2024/02/10 15:44:47;;;;;;;30.77;14.50;;;;;;;;;;4939780;29;20476;-70
2024/02/10 15:47:17;;;;;;;26.43;15.20;;;;;;;;;;4934785;29;20406;-70
2024/02/10 15:49:43;;;;;;;32.60;16.00;;;;;;;;;;4934458;29;20464;-71
2024/02/10 15:52:15;;;;;;;28.33;15.30;;;;;;;;;;4934705;29;20536;-71
2024/02/10 15:54:41;;;;;;;32.37;14.73;;;;;;;;;;4934902;29;20464;-71
2024/02/10 15:57:11;;;;;;;24.57;15.13;;;;;;;;;;4934930;28;20464;-70
2024/02/10 15:59:37;;;;;;;33.07;16.70;;;;;;;;;;4953685;29;20419;-70
2024/02/10 16:02:09;;;;;;;28.30;15.30;;;;;;;;;;4953655;28;20543;-70
2024/02/10 16:04:39;;;;;;;22.83;13.77;;;;;;;;;;4953738;28;20468;-70
2024/02/10 16:07:05;;;;;;;26.90;14.70;;;;;;;;;;4953944;28;20889;-70
2024/02/10 16:09:31;;;;;;;36.50;15.73;;;;;;;;;;4953540;29;20417;-71
2024/02/10 16:12:00;;;;;;;34.63;15.10;;;;;;;;;;4947970;29;20453;-70
2024/02/10 16:14:29;;;;;;;26.80;14.67;;;;;;;;;;4937737;29;20436;-71
2024/02/10 16:16:58;;;;;;;23.67;13.80;;;;;;;;;;4953813;29;20424;-71
2024/02/10 16:19:27;;;;;;;32.53;17.07;;;;;;;;;;4953478;29;20465;-69
2024/02/10 16:21:55;;;;;;;32.23;14.93;;;;;;;;;;4953808;29;20432;-71
2024/02/10 16:24:21;;;;;;;31.10;16.03;;;;;;;;;;4953811;29;20491;-70
2024/02/10 16:26:47;;;;;;;31.93;15.30;;;;;;;;;;4953855;29;20405;-70
2024/02/10 16:29:13;;;;;;;37.43;17.07;;;;;;;;;;4945864;28;20472;-71
2024/02/10 16:31:43;;;;;;;35.83;17.63;;;;;;;;;;4934516;29;20555;-70
2024/02/10 16:34:10;;;;;;;39.17;16.70;;;;;;;;;;4934869;29;20472;-71
2024/02/10 16:36:36;;;;;;;30.67;16.77;;;;;;;;;;4934816;29;20414;-70
2024/02/10 16:39:07;;;;;;;31.10;16.13;;;;;;;;;;4933202;29;20433;-71
2024/02/10 16:41:33;;;;;;;36.07;18.63;;;;;;;;;;4934164;29;20441;-70
2024/02/10 16:43:59;;;;;;;30.50;15.40;;;;;;;;;;4934463;29;20465;-70
2024/02/10 16:46:27;;;;;;;34.43;17.37;;;;;;;;;;4933753;29;20464;-71
2024/02/10 16:48:53;;;;;;;35.00;18.57;;;;;;;;;;4933491;29;20436;-70
2024/02/10 16:51:26;;;;;;;33.13;18.17;;;;;;;;;;4934618;29;20944;-71
2024/02/10 16:53:56;;;;;;;30.03;16.90;;;;;;;;;;4934504;29;20409;-71
2024/02/10 16:56:22;;;;;;;30.70;18.03;;;;;;;;;;4935395;28;20931;-70
2024/02/10 16:58:48;;;;;;;38.43;18.90;;;;;;;;;;4934522;29;20500;-71
2024/02/10 17:01:15;;;;;;;31.60;16.87;;;;;;;;;;4934296;29;20512;-70
2024/02/10 17:03:41;;;;;;;41.33;18.67;;;;;;;;;;4934763;29;20449;-70
2024/02/10 17:06:11;;;;;;;30.50;17.33;;;;;;;;;;4934866;29;20781;-70
2024/02/10 17:08:37;;;;;;;37.13;18.00;;;;;;;;;;4934924;29;20412;-70
2024/02/10 17:11:03;;;;;;;40.77;18.33;;;;;;;;;;4934255;29;20937;-71
2024/02/10 17:13:29;;;;;;;45.43;19.37;;;;;;;;;;4934338;29;20418;-70
2024/02/10 17:15:56;;;;;;;34.97;18.10;;;;;;;;;;4935253;29;20512;-70
2024/02/10 17:18:22;;;;;;;37.97;19.37;;;;;;;;;;4934285;29;20897;-71
2024/02/10 17:21:00;;;;;;;54.57;20.63;;;;;;;;;;4934036;29;20441;-71
2024/02/10 17:23:26;;;;;;;39.90;19.20;;;;;;;;;;4934522;29;20416;-71
2024/02/10 17:25:54;;;;;;;48.90;22.83;;;;;;;;;;4934371;29;20635;-71
2024/02/10 17:28:23;;;;;;;36.50;19.80;;;;;;;;;;4934914;28;20445;-71
2024/02/10 17:30:50;;;;;;;48.00;22.30;;;;;;;;;;4938054;29;20444;-71
2024/02/10 17:33:18;;;;;;;47.10;20.00;;;;;;;;;;4953378;28;20413;-71
2024/02/10 17:35:49;;;;;;;41.43;20.40;;;;;;;;;;4953633;28;20416;-71
2024/02/10 17:38:15;;;;;;;48.77;21.80;;;;;;;;;;4952179;28;20908;-70
2024/02/10 17:40:42;;;;;;;53.67;24.33;;;;;;;;;;4943402;28;20441;-69
2024/02/10 17:43:10;;;;;;;49.73;24.90;;;;;;;;;;4934331;29;20417;-71
2024/02/10 17:45:37;;;;;;;42.97;21.13;;;;;;;;;;4948507;29;20733;-71
2024/02/10 17:48:03;;;;;;;40.27;20.47;;;;;;;;;;4953167;28;20503;-71
2024/02/10 17:50:30;;;;;;;48.53;22.00;;;;;;;;;;4953040;29;20436;-71
2024/02/10 17:52:58;;;;;;;38.97;21.00;;;;;;;;;;4953279;28;20417;-71
2024/02/10 17:55:26;;;;;;;38.30;19.80;;;;;;;;;;4953169;28;20409;-72
2024/02/10 17:57:55;;;;;;;40.13;20.00;;;;;;;;;;4955068;28;20935;-70
2024/02/10 18:00:22;;;;;;;36.63;21.30;;;;;;;;;;4955082;28;20413;-70
2024/02/10 18:02:49;;;;;;;45.03;21.07;;;;;;;;;;4954969;29;20413;-71
2024/02/10 18:05:23;;;;;;;44.67;21.80;;;;;;;;;;4956141;28;20483;-71
2024/02/10 18:07:49;;;;;;;45.50;22.83;;;;;;;;;;4956388;28;20440;-71
2024/02/10 18:10:15;;;;;;;36.20;19.53;;;;;;;;;;4955877;29;20448;-71
2024/02/10 18:12:41;;;;;;;35.70;19.40;;;;;;;;;;4956132;29;20904;-71
2024/02/10 18:15:08;;;;;;;32.13;17.77;;;;;;;;;;4956230;29;20917;-71
2024/02/10 18:17:34;;;;;;;45.07;21.07;;;;;;;;;;4955982;28;20456;-71
2024/02/10 18:20:00;;;;;;;46.70;23.90;;;;;;;;;;4955799;29;20416;-71
2024/02/10 18:22:27;;;;;;;44.13;21.20;;;;;;;;;;4955684;28;20463;-71
2024/02/10 18:24:53;;;;;;;41.33;22.20;;;;;;;;;;4955403;28;21031;-71
2024/02/10 18:27:19;;;;;;;53.83;22.87;;;;;;;;;;4946144;28;20822;-70
2024/02/10 18:29:47;;;;;;;44.57;23.33;;;;;;;;;;4935904;29;20420;-71
2024/02/10 18:32:13;;;;;;;46.00;21.63;;;;;;;;;;4936267;29;20444;-70
2024/02/10 18:34:39;;;;;;;46.90;22.97;;;;;;;;;;4936073;29;20743;-70
2024/02/10 18:37:05;;;;;;;49.57;24.77;;;;;;;;;;4936529;29;20788;-70
2024/02/10 18:39:31;;;;;;;42.80;21.50;;;;;;;;;;4935244;29;20418;-71
2024/02/10 18:41:57;;;;;;;45.83;25.03;;;;;;;;;;4936119;29;20496;-71
2024/02/10 18:44:22;;;;;;;48.83;23.80;;;;;;;;;;4950975;29;20464;-70
2024/02/10 18:46:50;;;;;;;40.23;21.57;;;;;;;;;;4955407;29;20413;-71
2024/02/10 18:49:16;;;;;;;47.37;22.50;;;;;;;;;;4955451;28;20417;-70
2024/02/10 18:51:42;;;;;;;46.20;22.50;;;;;;;;;;4948010;29;20434;-69
2024/02/10 18:54:15;;;;;;;48.47;22.93;;;;;;;;;;4936395;29;20759;-71
2024/02/10 18:56:44;;;;;;;50.37;20.63;;;;;;;;;;4936149;29;20406;-71
2024/02/10 18:59:10;;;;;;;43.77;23.10;;;;;;;;;;4937795;29;20441;-71
2024/02/10 19:01:36;;;;;;;46.47;21.93;;;;;;;;;;4954753;29;20452;-71
2024/02/10 19:04:06;;;;;;;47.97;21.63;;;;;;;;;;4954843;29;20461;-71
2024/02/10 19:06:32;;;;;;;49.37;20.80;;;;;;;;;;4954715;28;20456;-71
2024/02/10 19:08:58;;;;;;;45.63;21.60;;;;;;;;;;4953148;28;20998;-71
2024/02/10 19:11:25;;;;;;;37.53;20.57;;;;;;;;;;4954440;28;20512;-70
2024/02/10 19:13:52;;;;;;;45.37;22.43;;;;;;;;;;4954662;28;20417;-71
2024/02/10 19:16:18;;;;;;;42.13;22.00;;;;;;;;;;4947572;28;20426;-70
2024/02/10 19:18:46;;;;;;;50.03;22.07;;;;;;;;;;4952696;29;20480;-72
2024/02/10 19:21:13;;;;;;;45.67;19.63;;;;;;;;;;4935056;29;20507;-69
2024/02/10 19:23:44;;;;;;;38.83;19.40;;;;;;;;;;4935342;29;20478;-70
2024/02/10 19:26:10;;;;;;;43.63;20.40;;;;;;;;;;4935293;29;20412;-70
2024/02/10 19:28:36;;;;;;;43.87;20.30;;;;;;;;;;4935135;29;20890;-70
2024/02/10 19:31:03;;;;;;;47.47;22.80;;;;;;;;;;4934920;29;20516;-70
2024/02/10 19:33:31;;;;;;;45.80;23.43;;;;;;;;;;4936247;29;20429;-71
2024/02/10 19:35:59;;;;;;;54.23;23.37;;;;;;;;;;4935280;29;20940;-70
2024/02/10 19:38:27;;;;;;;41.43;21.70;;;;;;;;;;4935213;29;20476;-69
2024/02/10 19:40:53;;;;;;;42.67;21.30;;;;;;;;;;4934966;29;20441;-69
2024/02/10 19:43:20;;;;;;;46.20;20.60;;;;;;;;;;4935169;29;20406;-70
2024/02/10 19:45:46;;;;;;;47.30;21.20;;;;;;;;;;4934948;29;20417;-71
2024/02/10 19:48:12;;;;;;;48.93;23.97;;;;;;;;;;4935650;28;20428;-71
2024/02/10 19:50:40;;;;;;;55.97;24.27;;;;;;;;;;4934708;29;20433;-70
2024/02/10 19:53:06;;;;;;;44.23;22.87;;;;;;;;;;4935431;29;20443;-70
2024/02/10 19:55:32;;;;;;;46.90;21.87;;;;;;;;;;4935073;29;20913;-70
2024/02/10 19:57:58;;;;;;;47.00;22.00;;;;;;;;;;4934707;29;20472;-70
2024/02/10 20:00:25;;;;;;;48.03;22.93;;;;;;;;;;4934438;29;20421;-70
2024/02/10 20:02:53;;;;;;;53.47;23.40;;;;;;;;;;4949868;29;20413;-72
2024/02/10 20:05:21;;;;;;;41.30;20.23;;;;;;;;;;4934289;29;20814;-72
2024/02/10 20:07:47;;;;;;;37.37;21.30;;;;;;;;;;4934751;29;20409;-72
2024/02/10 20:10:18;;;;;;;63.03;27.13;;;;;;;;;;4934491;29;20422;-71
2024/02/10 20:12:44;;;;;;;48.03;23.03;;;;;;;;;;4934666;29;20410;-70
2024/02/10 20:15:11;;;;;;;54.37;28.73;;;;;;;;;;4938197;28;20427;-71
2024/02/10 20:17:40;;;;;;;52.03;23.30;;;;;;;;;;4953284;29;20800;-72
2024/02/10 20:20:16;;;;;;;45.27;20.87;;;;;;;;;;4953604;28;20424;-70
2024/02/10 20:22:43;;;;;;;48.27;21.77;;;;;;;;;;4954729;28;20435;-70
2024/02/10 20:25:09;;;;;;;44.47;20.80;;;;;;;;;;4954811;28;20848;-72
2024/02/10 20:27:35;;;;;;;49.63;23.33;;;;;;;;;;4955321;29;20415;-72
2024/02/10 20:30:04;;;;;;;45.00;23.07;;;;;;;;;;4944317;28;20421;-72
2024/02/10 20:32:30;;;;;;;50.80;23.97;;;;;;;;;;4936160;29;20839;-72
2024/02/10 20:34:58;;;;;;;52.70;23.90;;;;;;;;;;4935006;29;20500;-71
2024/02/10 20:37:24;;;;;;;53.87;25.00;;;;;;;;;;4937257;28;20459;-72
2024/02/10 20:39:50;;;;;;;48.30;24.10;;;;;;;;;;4954072;29;20444;-73
2024/02/10 20:42:16;;;;;;;49.67;25.23;;;;;;;;;;4953708;29;20512;-73
2024/02/10 20:44:43;;;;;;;48.20;21.27;;;;;;;;;;4938339;28;20503;-73
2024/02/10 20:47:11;;;;;;;54.30;25.10;;;;;;;;;;4934914;29;20418;-73
2024/02/10 20:49:37;;;;;;;48.87;23.57;;;;;;;;;;4953126;29;20448;-72
2024/02/10 20:52:04;;;;;;;47.70;24.00;;;;;;;;;;4945428;29;20521;-71